createdAt,value
2023-02-05T00:11:54.250Z,93624.72
2023-02-05T03:10:50.853Z,93718.69
2023-02-05T03:42:00.035Z,93730.56
2023-02-05T03:57:19.942Z,93732.25
2023-02-05T05:01:48.873Z,93790.41
2023-02-05T05:16:50.460Z,93798.13
2023-02-05T09:39:44.343Z,94080.69
2023-02-05T09:54:44.425Z,94081.81
2023-02-05T10:10:00.227Z,94074.63
2023-02-05T10:25:24.971Z,94076.16
2023-02-05T10:40:31.228Z,94079.97
2023-02-05T10:55:33.405Z,94080.63
2023-02-05T11:10:36.236Z,94092.06
2023-02-05T11:41:08.406Z,94093.66
2023-02-05T11:56:11.565Z,94087.16
2023-02-05T12:11:13.039Z,94076.09
2023-02-05T12:26:26.769Z,94072.63
2023-02-05T12:41:28.304Z,94075.31
2023-02-05T12:56:41.472Z,94080.63
2023-02-05T13:11:45.364Z,94077.78
2023-02-05T17:34:38.341Z,94176.78
2023-02-05T17:49:39.941Z,94173.31
2023-02-05T18:04:41.910Z,94174.88
2023-02-05T18:19:43.774Z,94186.25
2023-02-05T18:34:45.322Z,94184.75
2023-02-05T19:05:53.943Z,94170.69
2023-02-05T19:20:55.602Z,94182.97
2023-02-05T19:36:07.148Z,94181.47
2023-02-05T19:51:09.636Z,94183.75
2023-02-05T20:06:12.377Z,94194.31
2023-02-05T20:21:15.654Z,94209.13
2023-02-05T20:36:17.412Z,94206.91
2023-02-05T20:51:20.580Z,94211.50
2023-02-05T21:06:22.630Z,94212.97
2023-02-05T21:21:26.307Z,94231.28
2023-02-05T21:36:28.965Z,94235.44
2023-02-05T21:51:31.920Z,94243.53
2023-02-05T22:06:36.801Z,94251.44
2023-02-05T22:21:39.820Z,94260.22
2023-02-05T22:36:44.352Z,94270.84
2023-02-05T22:51:57.261Z,94263.59
2023-02-05T23:06:58.806Z,94264.78
2023-02-05T23:22:00.409Z,94251.00
2023-02-05T23:37:02.003Z,94257.03
2023-02-05T23:52:05.969Z,94255.56
